Time;durP1;ratioP1;P1;durP2;ratioP2;P2;SDS_P1;SDS_P2;PMS_P1;PMS_P2;Temp;Humidity;BMP_temperature;BMP_pressure;BME280_temperature;BME280_humidity;BME280_pressure;Samples;Min_cycle;Max_cycle;Signal;HPM_P1;HPM_P2
2023/06/07 05:50:38;;;;;;;10.17;4.93;;;;;;;;;;10714992;27;20327;-83
2023/06/07 05:55:39;;;;;;;12.80;6.20;;;;;;;;;;10645022;27;20031;-83
2023/06/07 06:00:40;;;;;;;9.63;5.82;;;;;;;;;;10608960;28;20027;-87
2023/06/07 06:05:41;;;;;;;9.23;5.20;;;;;;;;;;10605801;27;20022;-87
2023/06/07 06:10:44;;;;;;;7.70;5.35;;;;;;;;;;10604824;28;20026;-86
2023/06/07 06:15:45;;;;;;;7.45;3.67;;;;;;;;;;10603414;27;20020;-86
2023/06/07 06:20:47;;;;;;;6.30;4.60;;;;;;;;;;10605208;28;20027;-87
2023/06/07 06:25:48;;;;;;;5.05;3.78;;;;;;;;;;10623390;27;20072;-87
2023/06/07 06:30:49;;;;;;;6.43;4.10;;;;;;;;;;10607315;28;20465;-87
2023/06/07 06:36:00;;;;;;;6.50;4.10;;;;;;;;;;10605726;27;20043;-85
2023/06/07 06:41:01;;;;;;;11.55;6.05;;;;;;;;;;10605545;28;20020;-87
2023/06/07 06:46:03;;;;;;;8.82;5.25;;;;;;;;;;10604832;27;20031;-87
2023/06/07 06:51:04;;;;;;;7.00;5.20;;;;;;;;;;10624328;28;20449;-86
2023/06/07 06:56:06;;;;;;;5.57;4.07;;;;;;;;;;10605762;27;20060;-87
2023/06/07 07:01:07;;;;;;;8.88;5.22;;;;;;;;;;10582264;28;20034;-87
2023/06/07 07:06:08;;;;;;;8.35;4.18;;;;;;;;;;10585480;28;20036;-84
2023/06/07 07:11:10;;;;;;;6.88;5.10;;;;;;;;;;10586285;28;20099;-85
2023/06/07 07:16:11;;;;;;;8.77;5.35;;;;;;;;;;10578812;28;20031;-89
2023/06/07 07:21:12;;;;;;;11.63;6.75;;;;;;;;;;10581483;28;20094;-88
2023/06/07 07:26:13;;;;;;;16.77;8.50;;;;;;;;;;10607173;28;20012;-86
2023/06/07 07:31:15;;;;;;;10.65;8.13;;;;;;;;;;10606701;28;20037;-85
2023/06/07 07:36:17;;;;;;;13.30;9.70;;;;;;;;;;10598425;28;20027;-85
2023/06/07 07:41:21;;;;;;;13.70;10.95;;;;;;;;;;10584494;28;20038;-84
2023/06/07 07:46:24;;;;;;;13.80;10.55;;;;;;;;;;10577265;28;20523;-85
2023/06/07 07:56:46;;;;;;;13.85;11.18;;;;;;;;;;10598982;28;20036;-85
2023/06/07 08:01:59;;;;;;;12.98;11.57;;;;;;;;;;10564444;28;20028;-85
2023/06/07 08:07:09;;;;;;;12.25;10.82;;;;;;;;;;10581894;28;20072;-86
2023/06/07 08:12:38;;;;;;;12.57;9.27;;;;;;;;;;10594477;28;20023;-86
2023/06/07 08:17:43;;;;;;;13.15;10.27;;;;;;;;;;10578755;28;20091;-85
2023/06/07 08:28:25;;;;;;;12.82;10.07;;;;;;;;;;10590601;28;20028;-85
2023/06/07 08:33:26;;;;;;;11.45;9.60;;;;;;;;;;10583399;28;20087;-84
2023/06/07 08:38:27;;;;;;;10.10;8.52;;;;;;;;;;10586430;28;20020;-85
2023/06/07 08:43:28;;;;;;;9.30;7.82;;;;;;;;;;10595908;28;20069;-84
2023/06/07 08:48:30;;;;;;;9.98;7.35;;;;;;;;;;10593200;28;20043;-84
2023/06/07 08:53:57;;;;;;;14.68;8.23;;;;;;;;;;10584342;28;20035;-84
2023/06/07 08:58:59;;;;;;;15.05;8.77;;;;;;;;;;10574371;28;20039;-83
2023/06/07 09:04:01;;;;;;;12.32;8.60;;;;;;;;;;10580014;28;20092;-84
2023/06/07 09:09:04;;;;;;;7.50;6.53;;;;;;;;;;10578314;28;20020;-84
2023/06/07 09:14:12;;;;;;;;;;;;;;;;;;10599001;28;20051;-82
2023/06/07 09:19:39;;;;;;;14.50;8.82;;;;;;;;;;10580952;28;19929;-83
2023/06/07 09:24:40;;;;;;;10.55;6.40;;;;;;;;;;10576654;28;20030;-83
2023/06/07 09:29:43;;;;;;;9.60;7.20;;;;;;;;;;10574977;28;20107;-84
2023/06/07 09:34:44;;;;;;;8.38;6.07;;;;;;;;;;10572978;28;20031;-83
2023/06/07 09:39:45;;;;;;;16.60;9.27;;;;;;;;;;10577187;28;20035;-84
2023/06/07 09:44:46;;;;;;;9.95;6.47;;;;;;;;;;10596497;28;20020;-84
2023/06/07 09:50:20;;;;;;;14.52;9.55;;;;;;;;;;10583675;28;20488;-85
2023/06/07 09:55:27;;;;;;;7.03;4.93;;;;;;;;;;10523857;28;20032;-85
2023/06/07 10:00:28;;;;;;;11.07;6.30;;;;;;;;;;10576373;28;20057;-85
2023/06/07 10:05:29;;;;;;;10.07;6.43;;;;;;;;;;10576132;28;20034;-84
2023/06/07 10:10:34;;;;;;;10.75;7.70;;;;;;;;;;10575754;28;20031;-83
2023/06/07 10:15:50;;;;;;;11.70;7.05;;;;;;;;;;10598717;28;20028;-85
2023/06/07 10:21:09;;;;;;;8.40;5.55;;;;;;;;;;10598932;28;20024;-84
2023/06/07 10:31:54;;;;;;;8.82;6.03;;;;;;;;;;10599927;28;20095;-85
2023/06/07 10:37:02;;;;;;;12.13;8.23;;;;;;;;;;10566946;28;20023;-84
2023/06/07 10:42:04;;;;;;;10.65;7.05;;;;;;;;;;10597970;28;20020;-84
2023/06/07 10:47:23;;;;;;;7.47;5.00;;;;;;;;;;10626914;28;20040;-84
2023/06/07 10:52:26;;;;;;;8.13;5.75;;;;;;;;;;10586838;28;20405;-84
2023/06/07 10:57:35;;;;;;;10.98;7.90;;;;;;;;;;10588816;28;20049;-85
2023/06/07 11:02:36;;;;;;;8.75;5.63;;;;;;;;;;10586970;28;20047;-85
2023/06/07 11:07:41;;;;;;;11.98;9.38;;;;;;;;;;10583391;28;20050;-84
2023/06/07 11:13:03;;;;;;;8.00;6.90;;;;;;;;;;10582972;28;20024;-84
2023/06/07 11:18:08;;;;;;;8.75;6.45;;;;;;;;;;10580923;28;20442;-85
2023/06/07 11:23:23;;;;;;;6.15;5.03;;;;;;;;;;10582948;28;20106;-85
2023/06/07 11:28:39;;;;;;;10.13;8.10;;;;;;;;;;10581180;28;20148;-85
2023/06/07 11:34:30;;;;;;;9.77;6.70;;;;;;;;;;10609772;28;20116;-85
2023/06/07 11:39:52;;;;;;;16.35;10.15;;;;;;;;;;10598035;28;20494;-84
2023/06/07 11:44:56;;;;;;;9.38;8.23;;;;;;;;;;10578732;28;20019;-84
2023/06/07 11:50:08;;;;;;;9.27;4.93;;;;;;;;;;10566987;28;20077;-85
2023/06/07 11:55:09;;;;;;;10.70;6.97;;;;;;;;;;10580586;28;20027;-84
2023/06/07 12:00:14;;;;;;;11.00;8.38;;;;;;;;;;10565866;22;20044;-86
2023/06/07 12:05:17;;;;;;;14.50;10.48;;;;;;;;;;10500215;28;20053;-84
2023/06/07 12:10:24;;;;;;;7.13;5.40;;;;;;;;;;10514037;28;20016;-85
2023/06/07 12:15:25;;;;;;;10.13;7.07;;;;;;;;;;10491706;28;20470;-85
2023/06/07 12:20:28;;;;;;;8.85;5.95;;;;;;;;;;10494251;28;20100;-83
2023/06/07 12:25:29;;;;;;;11.45;8.80;;;;;;;;;;10495113;28;20028;-83
2023/06/07 12:30:34;;;;;;;11.45;8.25;;;;;;;;;;10495505;28;20036;-81
2023/06/07 12:35:40;;;;;;;11.27;8.75;;;;;;;;;;10491345;28;20501;-84
2023/06/07 12:40:45;;;;;;;7.07;5.57;;;;;;;;;;10494346;28;20508;-83
2023/06/07 12:45:46;;;;;;;11.93;8.35;;;;;;;;;;10493430;28;20025;-82
2023/06/07 12:50:48;;;;;;;11.00;8.25;;;;;;;;;;10491596;28;20020;-82
2023/06/07 12:55:49;;;;;;;9.23;6.82;;;;;;;;;;10509738;28;20028;-82
2023/06/07 13:00:50;;;;;;;8.82;7.88;;;;;;;;;;10491824;28;20036;-82
2023/06/07 13:05:51;;;;;;;10.93;8.00;;;;;;;;;;10492404;28;20032;-82
2023/06/07 13:10:52;;;;;;;10.45;5.63;;;;;;;;;;10493363;28;20040;-83
2023/06/07 13:15:58;;;;;;;10.68;7.85;;;;;;;;;;10509823;28;20078;-82
2023/06/07 13:21:01;;;;;;;8.75;6.07;;;;;;;;;;10491886;28;20024;-83
2023/06/07 13:26:02;;;;;;;9.13;8.00;;;;;;;;;;10510513;28;20020;-84
2023/06/07 13:31:03;;;;;;;8.70;7.80;;;;;;;;;;10493857;28;20025;-84
2023/06/07 13:36:06;;;;;;;12.98;10.88;;;;;;;;;;10492979;28;20021;-85
2023/06/07 13:41:07;;;;;;;46.53;39.72;;;;;;;;;;10518198;28;20040;-83
2023/06/07 13:46:08;;;;;;;9.70;8.00;;;;;;;;;;10492959;28;20033;-84
2023/06/07 13:51:15;;;;;;;11.30;8.80;;;;;;;;;;10510936;28;20036;-83
2023/06/07 13:56:16;;;;;;;13.95;10.30;;;;;;;;;;10486860;28;20051;-83
2023/06/07 14:01:17;;;;;;;15.05;10.50;;;;;;;;;;10486707;28;20060;-84
2023/06/07 14:06:21;;;;;;;11.77;9.00;;;;;;;;;;10485670;28;20020;-82
2023/06/07 14:11:24;;;;;;;10.82;7.50;;;;;;;;;;10491332;28;20029;-81
2023/06/07 14:16:25;;;;;;;11.00;9.90;;;;;;;;;;10492858;28;20021;-82
2023/06/07 14:21:27;;;;;;;10.35;9.25;;;;;;;;;;10513531;28;20039;-82
2023/06/07 14:26:28;;;;;;;11.18;10.07;;;;;;;;;;10516446;28;20012;-83
2023/06/07 14:31:29;;;;;;;13.98;12.05;;;;;;;;;;10499011;28;20450;-82
2023/06/07 14:36:30;;;;;;;14.30;12.75;;;;;;;;;;10492147;28;20033;-82
2023/06/07 14:41:31;;;;;;;12.85;10.50;;;;;;;;;;10493205;28;20035;-81
2023/06/07 14:46:32;;;;;;;10.30;8.75;;;;;;;;;;10495695;28;20024;-83
2023/06/07 14:51:33;;;;;;;14.88;12.57;;;;;;;;;;10492638;28;20028;-81
2023/06/07 14:56:34;;;;;;;10.90;9.80;;;;;;;;;;10493012;28;20241;-82
2023/06/07 15:01:36;;;;;;;15.70;9.82;;;;;;;;;;10493817;28;20440;-82
2023/06/07 15:06:37;;;;;;;13.32;10.68;;;;;;;;;;10494470;28;20115;-82
2023/06/07 15:11:38;;;;;;;13.20;10.52;;;;;;;;;;10495131;28;20059;-81
2023/06/07 15:16:39;;;;;;;8.43;7.45;;;;;;;;;;10526719;28;20092;-83
2023/06/07 15:21:40;;;;;;;10.60;9.48;;;;;;;;;;10500745;28;20141;-84
2023/06/07 15:26:43;;;;;;;11.63;10.13;;;;;;;;;;10496219;28;20029;-82
2023/06/07 15:31:45;;;;;;;10.13;9.07;;;;;;;;;;10495994;28;20067;-82
2023/06/07 15:36:48;;;;;;;9.30;7.68;;;;;;;;;;10496313;28;20028;-83
2023/06/07 15:41:51;;;;;;;7.40;6.50;;;;;;;;;;10495456;28;20058;-83
2023/06/07 15:46:52;;;;;;;9.38;8.10;;;;;;;;;;10495180;28;20043;-81
2023/06/07 15:51:54;;;;;;;10.85;7.82;;;;;;;;;;10513567;28;20465;-83
2023/06/07 15:56:55;;;;;;;8.32;6.10;;;;;;;;;;10498664;28;20077;-83
2023/06/07 16:01:59;;;;;;;7.28;6.28;;;;;;;;;;10495656;28;20032;-85
2023/06/07 16:07:05;;;;;;;6.57;5.63;;;;;;;;;;10495509;28;20039;-83
2023/06/07 16:12:06;;;;;;;10.90;6.57;;;;;;;;;;10495084;28;20385;-82
2023/06/07 16:17:32;;;;;;;8.38;7.13;;;;;;;;;;10495747;28;20025;-82
2023/06/07 16:22:34;;;;;;;8.52;6.88;;;;;;;;;;10496560;28;20024;-83
2023/06/07 16:27:35;;;;;;;9.35;8.38;;;;;;;;;;10498941;28;20029;-80
